Terminal Aerodrome Forecast
Issued by NWS Twin Cities, MN

Home | Current Version | Previous Version | Text Only | Print | Product List | Glossary Off
Versions: 1 2 3 4 5 6 7 8 9 10 11 12 13 14 15 16 17

000
FTUS43 KMPX 272300
TAFEAU
TAF
KEAU 272331Z 2800/2824 36011G17KT P6SM SCT020 BKN035
     FM280200 01005KT P6SM SCT025 BKN045
     FM281000 35002KT 4SM BR SCT050
     FM281300 34005KT P6SM FEW040
     FM281500 33009KT P6SM SCT045=

USA.gov is the U.S. government's official web portal to all federal, state and local government web resources and services.